sensor_id;sensor_type;location;lat;lon;timestamp;P1;durP1;ratioP1;P2;durP2;ratioP2
66669;SDS011;53568;52.164;4.472;2022-09-27T00:00:33;6.37;;;3.69;;
66669;SDS011;53568;52.164;4.472;2022-09-27T00:02:59;7.39;;;4.26;;
66669;SDS011;53568;52.164;4.472;2022-09-27T00:05:26;7.62;;;4.39;;
66669;SDS011;53568;52.164;4.472;2022-09-27T00:07:51;6.74;;;3.89;;
66669;SDS011;53568;52.164;4.472;2022-09-27T00:10:17;7.35;;;4.24;;
66669;SDS011;53568;52.164;4.472;2022-09-27T00:12:43;6.67;;;3.85;;
66669;SDS011;53568;52.164;4.472;2022-09-27T00:15:09;7.07;;;4.08;;
66669;SDS011;53568;52.164;4.472;2022-09-27T00:17:36;7.06;;;4.11;;
66669;SDS011;53568;52.164;4.472;2022-09-27T00:20:03;7.36;;;4.29;;
66669;SDS011;53568;52.164;4.472;2022-09-27T00:22:30;6.90;;;4.08;;
66669;SDS011;53568;52.164;4.472;2022-09-27T00:24:56;7.54;;;4.45;;
66669;SDS011;53568;52.164;4.472;2022-09-27T00:27:22;6.69;;;3.95;;
66669;SDS011;53568;52.164;4.472;2022-09-27T00:29:47;6.72;;;3.98;;
66669;SDS011;53568;52.164;4.472;2022-09-27T00:32:13;6.78;;;3.98;;
66669;SDS011;53568;52.164;4.472;2022-09-27T00:34:39;7.31;;;4.26;;
66669;SDS011;53568;52.164;4.472;2022-09-27T00:37:05;7.29;;;4.27;;
66669;SDS011;53568;52.164;4.472;2022-09-27T00:39:31;5.62;;;3.30;;
66669;SDS011;53568;52.164;4.472;2022-09-27T00:41:57;6.25;;;3.67;;
66669;SDS011;53568;52.164;4.472;2022-09-27T00:49:26;6.32;;;3.72;;
66669;SDS011;53568;52.164;4.472;2022-09-27T00:51:58;5.44;;;3.21;;
66669;SDS011;53568;52.164;4.472;2022-09-27T00:54:28;6.01;;;3.53;;
66669;SDS011;53568;52.164;4.472;2022-09-27T00:56:57;5.45;;;3.17;;
66669;SDS011;53568;52.164;4.472;2022-09-27T00:59:28;6.04;;;3.49;;
66669;SDS011;53568;52.164;4.472;2022-09-27T01:01:59;4.92;;;2.85;;
66669;SDS011;53568;52.164;4.472;2022-09-27T01:04:28;4.91;;;2.86;;
66669;SDS011;53568;52.164;4.472;2022-09-27T01:06:55;4.90;;;2.87;;
66669;SDS011;53568;52.164;4.472;2022-09-27T01:09:21;5.08;;;2.97;;
66669;SDS011;53568;52.164;4.472;2022-09-27T01:15:06;5.89;;;3.45;;
66669;SDS011;53568;52.164;4.472;2022-09-27T01:17:48;5.10;;;2.98;;
66669;SDS011;53568;52.164;4.472;2022-09-27T01:31:34;5.60;;;3.28;;
66669;SDS011;53568;52.164;4.472;2022-09-27T01:34:36;5.68;;;3.33;;
66669;SDS011;53568;52.164;4.472;2022-09-27T01:42:46;5.08;;;3.01;;
66669;SDS011;53568;52.164;4.472;2022-09-27T01:48:03;5.02;;;2.92;;
66669;SDS011;53568;52.164;4.472;2022-09-27T01:50:50;4.67;;;2.73;;
66669;SDS011;53568;52.164;4.472;2022-09-27T01:53:32;5.45;;;3.19;;
66669;SDS011;53568;52.164;4.472;2022-09-27T01:56:03;5.19;;;3.01;;
66669;SDS011;53568;52.164;4.472;2022-09-27T02:01:21;5.49;;;3.20;;
66669;SDS011;53568;52.164;4.472;2022-09-27T02:03:52;5.18;;;3.01;;
66669;SDS011;53568;52.164;4.472;2022-09-27T02:06:30;5.15;;;3.01;;
66669;SDS011;53568;52.164;4.472;2022-09-27T02:09:15;4.37;;;2.56;;
66669;SDS011;53568;52.164;4.472;2022-09-27T02:11:48;4.86;;;2.83;;
66669;SDS011;53568;52.164;4.472;2022-09-27T02:14:30;5.29;;;3.09;;
66669;SDS011;53568;52.164;4.472;2022-09-27T02:17:07;3.52;;;2.08;;
66669;SDS011;53568;52.164;4.472;2022-09-27T02:19:52;3.70;;;2.18;;
66669;SDS011;53568;52.164;4.472;2022-09-27T02:28:07;3.73;;;2.19;;
66669;SDS011;53568;52.164;4.472;2022-09-27T02:30:51;4.72;;;2.77;;
66669;SDS011;53568;52.164;4.472;2022-09-27T02:33:18;4.74;;;2.78;;
66669;SDS011;53568;52.164;4.472;2022-09-27T02:35:48;4.40;;;2.57;;
66669;SDS011;53568;52.164;4.472;2022-09-27T02:38:14;4.90;;;2.87;;
66669;SDS011;53568;52.164;4.472;2022-09-27T02:40:44;5.05;;;2.96;;
66669;SDS011;53568;52.164;4.472;2022-09-27T02:43:11;4.91;;;2.86;;
66669;SDS011;53568;52.164;4.472;2022-09-27T02:46:03;5.66;;;3.32;;
66669;SDS011;53568;52.164;4.472;2022-09-27T02:56:53;4.90;;;2.88;;
66669;SDS011;53568;52.164;4.472;2022-09-27T03:02:19;6.16;;;3.57;;
66669;SDS011;53568;52.164;4.472;2022-09-27T03:04:58;5.67;;;3.30;;
66669;SDS011;53568;52.164;4.472;2022-09-27T03:07:29;5.74;;;3.35;;
66669;SDS011;53568;52.164;4.472;2022-09-27T03:09:55;5.36;;;3.13;;
66669;SDS011;53568;52.164;4.472;2022-09-27T03:12:21;5.43;;;3.17;;
66669;SDS011;53568;52.164;4.472;2022-09-27T03:14:50;5.23;;;3.03;;
66669;SDS011;53568;52.164;4.472;2022-09-27T03:17:17;4.84;;;2.80;;
66669;SDS011;53568;52.164;4.472;2022-09-27T03:19:42;4.12;;;2.39;;
66669;SDS011;53568;52.164;4.472;2022-09-27T03:22:08;4.76;;;2.78;;
66669;SDS011;53568;52.164;4.472;2022-09-27T03:24:33;4.80;;;2.79;;
66669;SDS011;53568;52.164;4.472;2022-09-27T03:26:59;4.85;;;2.82;;
66669;SDS011;53568;52.164;4.472;2022-09-27T03:29:24;4.85;;;2.85;;
66669;SDS011;53568;52.164;4.472;2022-09-27T03:31:50;5.26;;;3.09;;
66669;SDS011;53568;52.164;4.472;2022-09-27T03:34:15;4.42;;;2.58;;
66669;SDS011;53568;52.164;4.472;2022-09-27T03:36:41;4.75;;;2.75;;
66669;SDS011;53568;52.164;4.472;2022-09-27T03:39:07;4.91;;;2.88;;
66669;SDS011;53568;52.164;4.472;2022-09-27T03:41:32;4.71;;;2.77;;
66669;SDS011;53568;52.164;4.472;2022-09-27T03:43:58;4.77;;;2.81;;
66669;SDS011;53568;52.164;4.472;2022-09-27T03:46:24;5.14;;;3.00;;
66669;SDS011;53568;52.164;4.472;2022-09-27T03:48:50;5.11;;;2.98;;
66669;SDS011;53568;52.164;4.472;2022-09-27T03:51:15;4.13;;;2.44;;
66669;SDS011;53568;52.164;4.472;2022-09-27T03:53:41;4.45;;;2.62;;
66669;SDS011;53568;52.164;4.472;2022-09-27T03:56:07;5.29;;;3.11;;
66669;SDS011;53568;52.164;4.472;2022-09-27T03:58:33;4.29;;;2.53;;
66669;SDS011;53568;52.164;4.472;2022-09-27T04:00:59;4.64;;;2.74;;
66669;SDS011;53568;52.164;4.472;2022-09-27T04:03:24;3.95;;;2.31;;
66669;SDS011;53568;52.164;4.472;2022-09-27T04:05:51;5.83;;;3.38;;
66669;SDS011;53568;52.164;4.472;2022-09-27T04:08:17;4.93;;;2.88;;
66669;SDS011;53568;52.164;4.472;2022-09-27T04:10:45;4.87;;;2.84;;
66669;SDS011;53568;52.164;4.472;2022-09-27T04:13:10;4.56;;;2.67;;
66669;SDS011;53568;52.164;4.472;2022-09-27T04:15:36;4.34;;;2.52;;
66669;SDS011;53568;52.164;4.472;2022-09-27T04:18:03;4.18;;;2.43;;
66669;SDS011;53568;52.164;4.472;2022-09-27T04:20:29;3.78;;;2.21;;
66669;SDS011;53568;52.164;4.472;2022-09-27T04:22:55;3.34;;;1.97;;
66669;SDS011;53568;52.164;4.472;2022-09-27T04:25:20;3.47;;;2.04;;
66669;SDS011;53568;52.164;4.472;2022-09-27T04:27:46;3.58;;;2.10;;
66669;SDS011;53568;52.164;4.472;2022-09-27T04:30:13;3.75;;;2.20;;
66669;SDS011;53568;52.164;4.472;2022-09-27T04:32:40;3.13;;;1.84;;
66669;SDS011;53568;52.164;4.472;2022-09-27T04:35:07;3.16;;;1.86;;
66669;SDS011;53568;52.164;4.472;2022-09-27T04:37:52;3.01;;;1.78;;
66669;SDS011;53568;52.164;4.472;2022-09-27T04:40:17;2.71;;;1.61;;
66669;SDS011;53568;52.164;4.472;2022-09-27T04:42:44;3.98;;;2.35;;
66669;SDS011;53568;52.164;4.472;2022-09-27T04:45:09;3.30;;;1.95;;
66669;SDS011;53568;52.164;4.472;2022-09-27T04:47:41;2.82;;;1.67;;
66669;SDS011;53568;52.164;4.472;2022-09-27T04:50:08;3.47;;;2.06;;
66669;SDS011;53568;52.164;4.472;2022-09-27T04:52:33;3.43;;;2.05;;
66669;SDS011;53568;52.164;4.472;2022-09-27T04:54:59;2.89;;;1.73;;
66669;SDS011;53568;52.164;4.472;2022-09-27T04:57:24;2.78;;;1.67;;
66669;SDS011;53568;52.164;4.472;2022-09-27T04:59:50;3.00;;;1.80;;
66669;SDS011;53568;52.164;4.472;2022-09-27T05:02:15;3.00;;;1.79;;
66669;SDS011;53568;52.164;4.472;2022-09-27T05:04:41;3.78;;;2.25;;
66669;SDS011;53568;52.164;4.472;2022-09-27T05:07:07;4.80;;;2.84;;
66669;SDS011;53568;52.164;4.472;2022-09-27T05:09:32;4.52;;;2.66;;
66669;SDS011;53568;52.164;4.472;2022-09-27T05:11:57;3.83;;;2.25;;
66669;SDS011;53568;52.164;4.472;2022-09-27T05:14:23;4.29;;;2.53;;
66669;SDS011;53568;52.164;4.472;2022-09-27T05:16:48;2.98;;;1.76;;
66669;SDS011;53568;52.164;4.472;2022-09-27T05:19:14;3.16;;;1.86;;
66669;SDS011;53568;52.164;4.472;2022-09-27T05:21:40;3.06;;;1.80;;
66669;SDS011;53568;52.164;4.472;2022-09-27T05:24:07;3.79;;;2.23;;
66669;SDS011;53568;52.164;4.472;2022-09-27T05:26:32;3.42;;;2.00;;
66669;SDS011;53568;52.164;4.472;2022-09-27T05:28:58;3.00;;;1.76;;
66669;SDS011;53568;52.164;4.472;2022-09-27T05:31:23;3.16;;;1.86;;
66669;SDS011;53568;52.164;4.472;2022-09-27T05:33:50;3.66;;;2.15;;
66669;SDS011;53568;52.164;4.472;2022-09-27T05:36:16;3.61;;;2.12;;
66669;SDS011;53568;52.164;4.472;2022-09-27T05:38:42;3.37;;;1.98;;
66669;SDS011;53568;52.164;4.472;2022-09-27T05:41:08;3.55;;;2.09;;
66669;SDS011;53568;52.164;4.472;2022-09-27T05:43:34;3.40;;;1.99;;
66669;SDS011;53568;52.164;4.472;2022-09-27T05:46:00;3.46;;;2.02;;
66669;SDS011;53568;52.164;4.472;2022-09-27T05:48:26;3.50;;;2.07;;
66669;SDS011;53568;52.164;4.472;2022-09-27T05:50:54;3.07;;;1.83;;
66669;SDS011;53568;52.164;4.472;2022-09-27T05:53:20;3.11;;;1.84;;
66669;SDS011;53568;52.164;4.472;2022-09-27T05:55:45;2.94;;;1.76;;
66669;SDS011;53568;52.164;4.472;2022-09-27T05:58:12;2.69;;;1.61;;
66669;SDS011;53568;52.164;4.472;2022-09-27T06:00:40;2.91;;;1.77;;
66669;SDS011;53568;52.164;4.472;2022-09-27T06:03:06;2.05;;;1.26;;
66669;SDS011;53568;52.164;4.472;2022-09-27T06:05:35;2.24;;;1.37;;
66669;SDS011;53568;52.164;4.472;2022-09-27T06:08:04;2.69;;;1.63;;
66669;SDS011;53568;52.164;4.472;2022-09-27T06:10:31;3.56;;;2.15;;
66669;SDS011;53568;52.164;4.472;2022-09-27T06:12:58;3.20;;;1.93;;
66669;SDS011;53568;52.164;4.472;2022-09-27T06:15:26;3.92;;;2.34;;
66669;SDS011;53568;52.164;4.472;2022-09-27T06:17:52;3.38;;;2.01;;
66669;SDS011;53568;52.164;4.472;2022-09-27T06:20:18;3.16;;;1.88;;
66669;SDS011;53568;52.164;4.472;2022-09-27T06:22:44;3.11;;;1.86;;
66669;SDS011;53568;52.164;4.472;2022-09-27T06:25:10;3.27;;;1.93;;
66669;SDS011;53568;52.164;4.472;2022-09-27T06:27:36;4.50;;;2.67;;
66669;SDS011;53568;52.164;4.472;2022-09-27T06:30:02;5.58;;;3.32;;
66669;SDS011;53568;52.164;4.472;2022-09-27T06:32:31;5.22;;;3.09;;
66669;SDS011;53568;52.164;4.472;2022-09-27T06:34:56;5.42;;;3.19;;
66669;SDS011;53568;52.164;4.472;2022-09-27T06:37:25;4.18;;;2.49;;
66669;SDS011;53568;52.164;4.472;2022-09-27T06:39:51;4.04;;;2.41;;
66669;SDS011;53568;52.164;4.472;2022-09-27T06:42:18;4.95;;;2.97;;
66669;SDS011;53568;52.164;4.472;2022-09-27T06:44:44;4.48;;;2.73;;
66669;SDS011;53568;52.164;4.472;2022-09-27T06:47:13;4.47;;;2.73;;
66669;SDS011;53568;52.164;4.472;2022-09-27T06:49:39;4.49;;;2.73;;
66669;SDS011;53568;52.164;4.472;2022-09-27T06:52:04;4.14;;;2.46;;
66669;SDS011;53568;52.164;4.472;2022-09-27T06:54:30;4.60;;;2.73;;
66669;SDS011;53568;52.164;4.472;2022-09-27T06:56:55;4.58;;;2.74;;
66669;SDS011;53568;52.164;4.472;2022-09-27T06:59:21;4.86;;;2.92;;
66669;SDS011;53568;52.164;4.472;2022-09-27T07:02:05;5.51;;;3.29;;
66669;SDS011;53568;52.164;4.472;2022-09-27T07:04:31;4.09;;;2.44;;
66669;SDS011;53568;52.164;4.472;2022-09-27T07:06:56;3.25;;;1.94;;
66669;SDS011;53568;52.164;4.472;2022-09-27T07:09:22;2.79;;;1.68;;
66669;SDS011;53568;52.164;4.472;2022-09-27T07:11:47;3.22;;;1.93;;
66669;SDS011;53568;52.164;4.472;2022-09-27T07:14:13;4.20;;;2.52;;
66669;SDS011;53568;52.164;4.472;2022-09-27T07:16:40;4.60;;;2.74;;
66669;SDS011;53568;52.164;4.472;2022-09-27T07:19:05;5.95;;;3.51;;
66669;SDS011;53568;52.164;4.472;2022-09-27T07:21:32;5.81;;;3.39;;
66669;SDS011;53568;52.164;4.472;2022-09-27T07:23:57;5.97;;;3.45;;
66669;SDS011;53568;52.164;4.472;2022-09-27T07:26:23;4.42;;;2.56;;
66669;SDS011;53568;52.164;4.472;2022-09-27T07:28:48;5.14;;;3.00;;
66669;SDS011;53568;52.164;4.472;2022-09-27T07:31:14;5.05;;;2.95;;
66669;SDS011;53568;52.164;4.472;2022-09-27T07:33:42;5.36;;;3.15;;
66669;SDS011;53568;52.164;4.472;2022-09-27T07:36:08;4.19;;;2.48;;
66669;SDS011;53568;52.164;4.472;2022-09-27T07:38:35;4.20;;;2.50;;
66669;SDS011;53568;52.164;4.472;2022-09-27T07:41:08;4.00;;;2.39;;
66669;SDS011;53568;52.164;4.472;2022-09-27T07:43:36;3.87;;;2.32;;
66669;SDS011;53568;52.164;4.472;2022-09-27T07:46:01;4.18;;;2.51;;
66669;SDS011;53568;52.164;4.472;2022-09-27T07:48:27;4.55;;;2.74;;
66669;SDS011;53568;52.164;4.472;2022-09-27T07:50:52;4.70;;;2.87;;
66669;SDS011;53568;52.164;4.472;2022-09-27T07:53:18;4.85;;;2.99;;
66669;SDS011;53568;52.164;4.472;2022-09-27T07:55:48;4.62;;;2.86;;
66669;SDS011;53568;52.164;4.472;2022-09-27T07:58:17;5.14;;;3.15;;
66669;SDS011;53568;52.164;4.472;2022-09-27T08:00:44;4.38;;;2.71;;
66669;SDS011;53568;52.164;4.472;2022-09-27T08:03:11;4.67;;;2.94;;
66669;SDS011;53568;52.164;4.472;2022-09-27T08:05:41;4.62;;;2.92;;
66669;SDS011;53568;52.164;4.472;2022-09-27T08:08:08;5.14;;;3.19;;
66669;SDS011;53568;52.164;4.472;2022-09-27T08:10:34;4.77;;;2.94;;
66669;SDS011;53568;52.164;4.472;2022-09-27T08:13:00;5.07;;;3.11;;
66669;SDS011;53568;52.164;4.472;2022-09-27T08:15:28;5.03;;;3.04;;
66669;SDS011;53568;52.164;4.472;2022-09-27T08:17:57;5.75;;;3.46;;
66669;SDS011;53568;52.164;4.472;2022-09-27T08:20:23;5.47;;;3.31;;
66669;SDS011;53568;52.164;4.472;2022-09-27T08:22:48;7.46;;;4.50;;
66669;SDS011;53568;52.164;4.472;2022-09-27T08:25:14;5.34;;;3.27;;
66669;SDS011;53568;52.164;4.472;2022-09-27T08:27:40;4.30;;;2.63;;
66669;SDS011;53568;52.164;4.472;2022-09-27T08:30:06;4.12;;;2.53;;
66669;SDS011;53568;52.164;4.472;2022-09-27T08:32:33;3.21;;;1.96;;
66669;SDS011;53568;52.164;4.472;2022-09-27T08:34:58;3.47;;;2.11;;
66669;SDS011;53568;52.164;4.472;2022-09-27T08:37:24;3.64;;;2.22;;
66669;SDS011;53568;52.164;4.472;2022-09-27T08:39:50;2.93;;;1.80;;
66669;SDS011;53568;52.164;4.472;2022-09-27T08:50:35;3.22;;;1.99;;
66669;SDS011;53568;52.164;4.472;2022-09-27T09:00:45;3.95;;;2.46;;
66669;SDS011;53568;52.164;4.472;2022-09-27T09:03:20;3.68;;;2.27;;
66669;SDS011;53568;52.164;4.472;2022-09-27T09:06:37;3.73;;;2.31;;
66669;SDS011;53568;52.164;4.472;2022-09-27T09:17:13;4.03;;;2.55;;
66669;SDS011;53568;52.164;4.472;2022-09-27T09:19:58;3.72;;;2.39;;
66669;SDS011;53568;52.164;4.472;2022-09-27T09:25:48;3.61;;;2.31;;
66669;SDS011;53568;52.164;4.472;2022-09-27T09:33:48;3.20;;;2.01;;
66669;SDS011;53568;52.164;4.472;2022-09-27T09:36:30;3.61;;;2.26;;
66669;SDS011;53568;52.164;4.472;2022-09-27T09:39:17;4.15;;;2.63;;
66669;SDS011;53568;52.164;4.472;2022-09-27T09:44:38;4.26;;;2.77;;
66669;SDS011;53568;52.164;4.472;2022-09-27T09:47:41;4.09;;;2.80;;
66669;SDS011;53568;52.164;4.472;2022-09-27T09:50:16;3.85;;;2.72;;
66669;SDS011;53568;52.164;4.472;2022-09-27T09:52:50;3.63;;;2.67;;
66669;SDS011;53568;52.164;4.472;2022-09-27T09:55:30;3.14;;;2.36;;
66669;SDS011;53568;52.164;4.472;2022-09-27T10:00:56;3.15;;;2.40;;
66669;SDS011;53568;52.164;4.472;2022-09-27T10:03:33;4.16;;;3.21;;
66669;SDS011;53568;52.164;4.472;2022-09-27T10:05:58;3.71;;;2.86;;
66669;SDS011;53568;52.164;4.472;2022-09-27T10:08:24;3.49;;;2.67;;
66669;SDS011;53568;52.164;4.472;2022-09-27T10:10:50;3.71;;;2.77;;
66669;SDS011;53568;52.164;4.472;2022-09-27T10:13:17;3.59;;;2.62;;
66669;SDS011;53568;52.164;4.472;2022-09-27T10:16:03;3.21;;;2.32;;
66669;SDS011;53568;52.164;4.472;2022-09-27T10:18:35;3.01;;;2.14;;
66669;SDS011;53568;52.164;4.472;2022-09-27T10:21:06;3.14;;;2.21;;
66669;SDS011;53568;52.164;4.472;2022-09-27T10:24:00;3.16;;;2.19;;
66669;SDS011;53568;52.164;4.472;2022-09-27T10:26:28;3.00;;;2.05;;
66669;SDS011;53568;52.164;4.472;2022-09-27T10:28:55;3.40;;;2.31;;
66669;SDS011;53568;52.164;4.472;2022-09-27T10:31:21;3.76;;;2.54;;
66669;SDS011;53568;52.164;4.472;2022-09-27T10:36:33;5.67;;;3.91;;
66669;SDS011;53568;52.164;4.472;2022-09-27T10:39:00;3.77;;;2.74;;
66669;SDS011;53568;52.164;4.472;2022-09-27T10:41:33;3.47;;;2.41;;
66669;SDS011;53568;52.164;4.472;2022-09-27T10:46:45;4.11;;;2.71;;
66669;SDS011;53568;52.164;4.472;2022-09-27T10:51:57;4.90;;;3.21;;
66669;SDS011;53568;52.164;4.472;2022-09-27T10:54:31;4.65;;;3.09;;
66669;SDS011;53568;52.164;4.472;2022-09-27T10:57:04;4.60;;;3.07;;
66669;SDS011;53568;52.164;4.472;2022-09-27T10:59:44;5.21;;;3.54;;
66669;SDS011;53568;52.164;4.472;2022-09-27T11:02:20;4.58;;;3.18;;
66669;SDS011;53568;52.164;4.472;2022-09-27T11:05:01;3.46;;;2.36;;
66669;SDS011;53568;52.164;4.472;2022-09-27T11:07:37;3.02;;;2.03;;
66669;SDS011;53568;52.164;4.472;2022-09-27T11:10:24;3.31;;;2.24;;
66669;SDS011;53568;52.164;4.472;2022-09-27T11:13:07;4.35;;;3.03;;
66669;SDS011;53568;52.164;4.472;2022-09-27T11:18:29;4.07;;;3.03;;
66669;SDS011;53568;52.164;4.472;2022-09-27T11:21:12;3.72;;;2.80;;
66669;SDS011;53568;52.164;4.472;2022-09-27T11:24:13;3.15;;;2.44;;
66669;SDS011;53568;52.164;4.472;2022-09-27T11:43:41;3.44;;;2.75;;
66669;SDS011;53568;52.164;4.472;2022-09-27T11:46:34;2.05;;;1.68;;
66669;SDS011;53568;52.164;4.472;2022-09-27T11:51:52;2.60;;;2.07;;
66669;SDS011;53568;52.164;4.472;2022-09-27T12:03:14;2.80;;;2.22;;
66669;SDS011;53568;52.164;4.472;2022-09-27T12:11:34;2.31;;;1.70;;
66669;SDS011;53568;52.164;4.472;2022-09-27T12:14:29;3.54;;;2.51;;
66669;SDS011;53568;52.164;4.472;2022-09-27T12:17:03;2.50;;;1.72;;
66669;SDS011;53568;52.164;4.472;2022-09-27T12:19:38;3.05;;;2.05;;
66669;SDS011;53568;52.164;4.472;2022-09-27T12:22:10;2.88;;;1.92;;
66669;SDS011;53568;52.164;4.472;2022-09-27T12:24:40;3.12;;;2.08;;
66669;SDS011;53568;52.164;4.472;2022-09-27T12:30:14;2.42;;;1.66;;
66669;SDS011;53568;52.164;4.472;2022-09-27T12:32:43;2.49;;;1.70;;
66669;SDS011;53568;52.164;4.472;2022-09-27T12:35:39;2.63;;;1.81;;
66669;SDS011;53568;52.164;4.472;2022-09-27T12:40:42;2.54;;;1.75;;
66669;SDS011;53568;52.164;4.472;2022-09-27T12:43:17;2.90;;;1.98;;
66669;SDS011;53568;52.164;4.472;2022-09-27T12:45:49;2.45;;;1.68;;
66669;SDS011;53568;52.164;4.472;2022-09-27T12:48:39;2.34;;;1.62;;
66669;SDS011;53568;52.164;4.472;2022-09-27T12:51:10;2.66;;;1.84;;
66669;SDS011;53568;52.164;4.472;2022-09-27T12:56:30;2.07;;;1.46;;
66669;SDS011;53568;52.164;4.472;2022-09-27T13:05:00;2.56;;;1.76;;
66669;SDS011;53568;52.164;4.472;2022-09-27T13:10:41;2.33;;;1.70;;
66669;SDS011;53568;52.164;4.472;2022-09-27T13:13:36;2.56;;;1.89;;
66669;SDS011;53568;52.164;4.472;2022-09-27T13:16:04;2.53;;;1.87;;
66669;SDS011;53568;52.164;4.472;2022-09-27T13:21:00;2.96;;;2.19;;
66669;SDS011;53568;52.164;4.472;2022-09-27T13:31:11;2.59;;;1.88;;
66669;SDS011;53568;52.164;4.472;2022-09-27T13:33:40;3.00;;;2.16;;
66669;SDS011;53568;52.164;4.472;2022-09-27T13:36:15;2.70;;;1.88;;
66669;SDS011;53568;52.164;4.472;2022-09-27T13:49:37;3.20;;;2.15;;
66669;SDS011;53568;52.164;4.472;2022-09-27T13:52:27;3.27;;;2.22;;
66669;SDS011;53568;52.164;4.472;2022-09-27T13:55:05;3.49;;;2.37;;
66669;SDS011;53568;52.164;4.472;2022-09-27T13:57:55;3.64;;;2.47;;
66669;SDS011;53568;52.164;4.472;2022-09-27T14:00:29;3.48;;;2.37;;
66669;SDS011;53568;52.164;4.472;2022-09-27T14:05:55;3.45;;;2.34;;
66669;SDS011;53568;52.164;4.472;2022-09-27T14:08:32;3.01;;;2.03;;
66669;SDS011;53568;52.164;4.472;2022-09-27T14:11:09;3.02;;;2.04;;
66669;SDS011;53568;52.164;4.472;2022-09-27T14:13:39;3.39;;;2.28;;
66669;SDS011;53568;52.164;4.472;2022-09-27T14:16:12;3.38;;;2.28;;
66669;SDS011;53568;52.164;4.472;2022-09-27T14:18:52;3.77;;;2.51;;
66669;SDS011;53568;52.164;4.472;2022-09-27T14:21:29;3.22;;;2.16;;
66669;SDS011;53568;52.164;4.472;2022-09-27T14:27:02;3.23;;;2.18;;
66669;SDS011;53568;52.164;4.472;2022-09-27T14:32:16;2.91;;;2.00;;
66669;SDS011;53568;52.164;4.472;2022-09-27T14:35:01;3.34;;;2.31;;
66669;SDS011;53568;52.164;4.472;2022-09-27T14:38:00;3.17;;;2.19;;
66669;SDS011;53568;52.164;4.472;2022-09-27T14:40:28;3.29;;;2.24;;
66669;SDS011;53568;52.164;4.472;2022-09-27T14:42:58;3.32;;;2.24;;
66669;SDS011;53568;52.164;4.472;2022-09-27T14:45:28;3.20;;;2.14;;
66669;SDS011;53568;52.164;4.472;2022-09-27T14:48:01;3.66;;;2.40;;
66669;SDS011;53568;52.164;4.472;2022-09-27T14:50:41;4.45;;;2.91;;
66669;SDS011;53568;52.164;4.472;2022-09-27T14:53:25;3.78;;;2.47;;
66669;SDS011;53568;52.164;4.472;2022-09-27T14:55:52;3.31;;;2.20;;
66669;SDS011;53568;52.164;4.472;2022-09-27T14:58:19;4.07;;;2.76;;
66669;SDS011;53568;52.164;4.472;2022-09-27T15:00:47;3.53;;;2.42;;
66669;SDS011;53568;52.164;4.472;2022-09-27T15:03:22;3.77;;;2.55;;
66669;SDS011;53568;52.164;4.472;2022-09-27T15:05:54;3.41;;;2.30;;
66669;SDS011;53568;52.164;4.472;2022-09-27T15:08:25;3.79;;;2.57;;
66669;SDS011;53568;52.164;4.472;2022-09-27T15:10:58;3.57;;;2.42;;
66669;SDS011;53568;52.164;4.472;2022-09-27T15:13:25;3.43;;;2.38;;
66669;SDS011;53568;52.164;4.472;2022-09-27T15:15:52;3.24;;;2.25;;
66669;SDS011;53568;52.164;4.472;2022-09-27T15:21:12;3.75;;;2.62;;
66669;SDS011;53568;52.164;4.472;2022-09-27T15:23:59;3.13;;;2.21;;
66669;SDS011;53568;52.164;4.472;2022-09-27T15:29:01;2.25;;;1.64;;
66669;SDS011;53568;52.164;4.472;2022-09-27T15:31:31;2.73;;;1.95;;
66669;SDS011;53568;52.164;4.472;2022-09-27T15:33:59;2.99;;;2.15;;
66669;SDS011;53568;52.164;4.472;2022-09-27T15:36:48;2.85;;;2.05;;
66669;SDS011;53568;52.164;4.472;2022-09-27T15:39:18;2.70;;;1.93;;
66669;SDS011;53568;52.164;4.472;2022-09-27T15:42:24;2.32;;;1.68;;
66669;SDS011;53568;52.164;4.472;2022-09-27T15:44:50;2.43;;;1.80;;
66669;SDS011;53568;52.164;4.472;2022-09-27T15:50:15;2.64;;;1.95;;
66669;SDS011;53568;52.164;4.472;2022-09-27T15:52:55;2.41;;;1.81;;
66669;SDS011;53568;52.164;4.472;2022-09-27T15:55:25;2.69;;;1.98;;
66669;SDS011;53568;52.164;4.472;2022-09-27T15:58:03;2.88;;;2.10;;
66669;SDS011;53568;52.164;4.472;2022-09-27T16:00:32;2.85;;;2.08;;
66669;SDS011;53568;52.164;4.472;2022-09-27T16:03:02;2.88;;;2.14;;
66669;SDS011;53568;52.164;4.472;2022-09-27T16:05:27;2.84;;;2.11;;
66669;SDS011;53568;52.164;4.472;2022-09-27T16:07:54;3.02;;;2.23;;
66669;SDS011;53568;52.164;4.472;2022-09-27T16:10:20;2.87;;;2.11;;
66669;SDS011;53568;52.164;4.472;2022-09-27T16:12:48;2.92;;;2.19;;
66669;SDS011;53568;52.164;4.472;2022-09-27T16:15:15;3.44;;;2.57;;
66669;SDS011;53568;52.164;4.472;2022-09-27T16:17:41;3.25;;;2.40;;
66669;SDS011;53568;52.164;4.472;2022-09-27T16:20:17;3.04;;;2.24;;
66669;SDS011;53568;52.164;4.472;2022-09-27T16:22:47;2.89;;;2.13;;
66669;SDS011;53568;52.164;4.472;2022-09-27T16:25:12;2.49;;;1.83;;
66669;SDS011;53568;52.164;4.472;2022-09-27T16:27:38;2.28;;;1.65;;
66669;SDS011;53568;52.164;4.472;2022-09-27T16:30:04;2.39;;;1.71;;
66669;SDS011;53568;52.164;4.472;2022-09-27T16:32:30;2.78;;;1.94;;
66669;SDS011;53568;52.164;4.472;2022-09-27T16:34:55;2.83;;;1.99;;
66669;SDS011;53568;52.164;4.472;2022-09-27T16:37:21;2.78;;;1.94;;
66669;SDS011;53568;52.164;4.472;2022-09-27T16:39:47;2.93;;;2.05;;
66669;SDS011;53568;52.164;4.472;2022-09-27T16:42:13;3.62;;;2.61;;
66669;SDS011;53568;52.164;4.472;2022-09-27T16:44:39;2.93;;;2.19;;
66669;SDS011;53568;52.164;4.472;2022-09-27T16:47:05;3.03;;;2.29;;
66669;SDS011;53568;52.164;4.472;2022-09-27T16:49:33;2.80;;;2.08;;
66669;SDS011;53568;52.164;4.472;2022-09-27T16:52:18;3.47;;;2.55;;
66669;SDS011;53568;52.164;4.472;2022-09-27T16:54:43;2.98;;;2.25;;
66669;SDS011;53568;52.164;4.472;2022-09-27T16:57:09;3.10;;;2.36;;
66669;SDS011;53568;52.164;4.472;2022-09-27T16:59:35;3.16;;;2.36;;
66669;SDS011;53568;52.164;4.472;2022-09-27T17:02:00;3.29;;;2.50;;
66669;SDS011;53568;52.164;4.472;2022-09-27T17:04:29;3.00;;;2.30;;
66669;SDS011;53568;52.164;4.472;2022-09-27T17:06:56;2.95;;;2.33;;
66669;SDS011;53568;52.164;4.472;2022-09-27T17:09:21;2.41;;;1.92;;
66669;SDS011;53568;52.164;4.472;2022-09-27T17:11:48;2.91;;;2.33;;
66669;SDS011;53568;52.164;4.472;2022-09-27T17:14:13;2.55;;;2.07;;
66669;SDS011;53568;52.164;4.472;2022-09-27T17:16:44;2.60;;;2.12;;
66669;SDS011;53568;52.164;4.472;2022-09-27T17:19:11;2.50;;;2.03;;
66669;SDS011;53568;52.164;4.472;2022-09-27T17:21:38;2.31;;;1.89;;
66669;SDS011;53568;52.164;4.472;2022-09-27T17:24:04;2.15;;;1.78;;
66669;SDS011;53568;52.164;4.472;2022-09-27T17:26:31;2.32;;;1.88;;
66669;SDS011;53568;52.164;4.472;2022-09-27T17:28:58;2.31;;;1.89;;
66669;SDS011;53568;52.164;4.472;2022-09-27T17:31:25;2.12;;;1.75;;
66669;SDS011;53568;52.164;4.472;2022-09-27T17:33:52;2.65;;;2.13;;
66669;SDS011;53568;52.164;4.472;2022-09-27T17:36:19;2.47;;;1.99;;
66669;SDS011;53568;52.164;4.472;2022-09-27T17:38:48;2.73;;;2.15;;
66669;SDS011;53568;52.164;4.472;2022-09-27T17:41:16;2.41;;;1.90;;
66669;SDS011;53568;52.164;4.472;2022-09-27T17:43:44;2.79;;;2.17;;
66669;SDS011;53568;52.164;4.472;2022-09-27T17:46:15;2.83;;;2.22;;
66669;SDS011;53568;52.164;4.472;2022-09-27T17:48:42;2.44;;;1.93;;
66669;SDS011;53568;52.164;4.472;2022-09-27T17:51:27;2.66;;;2.11;;
66669;SDS011;53568;52.164;4.472;2022-09-27T17:53:53;2.34;;;1.86;;
66669;SDS011;53568;52.164;4.472;2022-09-27T17:56:19;2.65;;;2.15;;
66669;SDS011;53568;52.164;4.472;2022-09-27T17:58:45;2.13;;;1.76;;
66669;SDS011;53568;52.164;4.472;2022-09-27T18:01:12;2.60;;;2.17;;
66669;SDS011;53568;52.164;4.472;2022-09-27T18:03:38;2.43;;;2.02;;
66669;SDS011;53568;52.164;4.472;2022-09-27T18:06:05;2.03;;;1.71;;
66669;SDS011;53568;52.164;4.472;2022-09-27T18:08:31;1.94;;;1.64;;
66669;SDS011;53568;52.164;4.472;2022-09-27T18:11:07;2.35;;;1.95;;
66669;SDS011;53568;52.164;4.472;2022-09-27T18:13:36;1.89;;;1.58;;